Time;durP1;ratioP1;P1;durP2;ratioP2;P2;SDS_P1;SDS_P2;PMS_P1;PMS_P2;Temp;Humidity;BMP_temperature;BMP_pressure;BME280_temperature;BME280_humidity;BME280_pressure;Samples;Min_cycle;Max_cycle;Signal;HPM_P1;HPM_P2
2023/02/23 00:01:25;;;;;;;58.05;24.63;;;7.20;99.90;;;;;;5075989;28;20142;-77
2023/02/23 00:03:57;;;;;;;57.17;25.42;;;7.30;99.90;;;;;;5080284;28;20111;-77
2023/02/23 00:06:26;;;;;;;60.63;25.60;;;7.20;99.90;;;;;;5055475;28;20043;-77
2023/02/23 00:08:53;;;;;;;67.25;27.58;;;7.30;99.90;;;;;;5091970;28;20043;-76
2023/02/23 00:11:21;;;;;;;64.78;26.75;;;7.20;99.90;;;;;;5073534;28;20558;-77
2023/02/23 00:13:49;;;;;;;74.00;27.88;;;7.20;99.90;;;;;;5072309;28;20420;-76
2023/02/23 00:16:21;;;;;;;65.25;27.25;;;7.20;99.90;;;;;;5055312;28;20040;-78
2023/02/23 00:18:52;;;;;;;62.67;26.77;;;7.20;99.90;;;;;;5072068;28;20047;-76
2023/02/23 00:21:34;;;;;;;68.10;27.48;;;7.10;99.90;;;;;;5071638;28;20040;-76
2023/02/23 00:24:05;;;;;;;66.25;27.30;;;7.10;99.90;;;;;;5056388;28;20032;-76
2023/02/23 00:26:33;;;;;;;66.60;27.25;;;7.10;99.90;;;;;;5071578;28;20062;-77
2023/02/23 00:29:03;;;;;;;64.80;27.63;;;7.10;99.90;;;;;;5095994;28;20117;-77
2023/02/23 00:31:30;;;;;;;68.25;27.40;;;7.10;99.90;;;;;;5075679;28;20054;-77
2023/02/23 00:33:59;;;;;;;60.20;27.20;;;7.10;99.90;;;;;;5092349;28;20127;-76
2023/02/23 00:36:30;;;;;;;65.55;27.05;;;7.10;99.90;;;;;;5091447;28;20557;-77
2023/02/23 00:39:00;;;;;;;68.03;28.45;;;7.10;99.90;;;;;;5088637;28;20030;-76
2023/02/23 00:41:28;;;;;;;63.70;27.33;;;7.10;99.90;;;;;;5071485;28;20068;-77
2023/02/23 00:43:59;;;;;;;66.10;28.42;;;7.10;99.90;;;;;;5055240;28;20469;-77
2023/02/23 00:46:28;;;;;;;66.78;26.80;;;7.10;99.90;;;;;;5071494;28;20032;-77
2023/02/23 00:48:57;;;;;;;68.22;27.75;;;7.10;99.90;;;;;;5072468;28;20029;-76
2023/02/23 00:51:26;;;;;;;68.65;28.77;;;7.10;99.90;;;;;;5071636;28;20062;-77
2023/02/23 00:53:54;;;;;;;62.33;27.92;;;7.10;99.90;;;;;;5078890;28;20032;-77
2023/02/23 00:56:20;;;;;;;62.08;27.42;;;7.10;99.90;;;;;;5091438;28;20051;-77
2023/02/23 00:58:47;;;;;;;60.22;27.67;;;7.10;99.90;;;;;;5075171;28;20044;-77
2023/02/23 01:01:15;;;;;;;63.35;26.77;;;7.10;99.90;;;;;;5106756;28;20043;-76
2023/02/23 01:03:42;;;;;;;64.18;27.15;;;7.10;99.90;;;;;;5075036;28;20523;-76
2023/02/23 01:06:14;;;;;;;63.17;27.52;;;7.10;99.90;;;;;;5091631;28;20136;-77
2023/02/23 01:08:49;;;;;;;62.20;27.48;;;7.10;99.90;;;;;;5094022;28;20040;-77
2023/02/23 01:11:21;;;;;;;62.78;27.33;;;7.10;99.90;;;;;;5099266;28;20098;-76
2023/02/23 01:13:51;;;;;;;58.97;25.75;;;7.10;99.90;;;;;;5058938;28;20044;-76
2023/02/23 01:16:21;;;;;;;64.40;26.63;;;7.10;99.90;;;;;;5058880;28;20083;-77
2023/02/23 01:18:48;;;;;;;61.33;26.50;;;7.10;99.90;;;;;;5075468;28;20125;-76
2023/02/23 01:21:27;;;;;;;64.88;27.45;;;7.10;99.90;;;;;;5065864;28;20047;-77
2023/02/23 01:23:54;;;;;;;60.20;27.00;;;7.10;99.90;;;;;;5091688;28;20538;-76
2023/02/23 01:26:27;;;;;;;65.35;27.95;;;7.10;99.90;;;;;;5074491;28;20052;-77
2023/02/23 01:28:59;;;;;;;62.67;27.88;;;7.20;99.90;;;;;;5075171;28;20405;-76
2023/02/23 01:31:27;;;;;;;58.25;24.65;;;7.20;99.90;;;;;;5099157;28;20051;-77
2023/02/23 01:33:59;;;;;;;61.58;29.23;;;7.20;99.90;;;;;;5078606;28;20504;-76
2023/02/23 01:36:29;;;;;;;60.10;24.70;;;7.20;99.90;;;;;;5094209;28;20043;-77
2023/02/23 01:38:58;;;;;;;60.50;27.35;;;7.20;99.90;;;;;;5058972;28;20044;-76
2023/02/23 01:41:27;;;;;;;69.50;29.33;;;7.20;99.90;;;;;;5058854;28;20523;-76
2023/02/23 01:44:00;;;;;;;73.32;29.98;;;7.10;99.90;;;;;;5075240;28;20098;-76
2023/02/23 01:46:33;;;;;;;69.78;29.88;;;7.20;99.90;;;;;;5091600;28;20036;-77
2023/02/23 01:49:01;;;;;;;64.80;27.98;;;7.20;99.90;;;;;;5074904;28;20047;-76
2023/02/23 01:51:32;;;;;;;69.20;30.30;;;7.20;99.90;;;;;;5094157;28;20044;-76
2023/02/23 01:54:13;;;;;;;68.35;30.00;;;7.20;99.90;;;;;;5111481;28;20072;-76
2023/02/23 01:56:43;;;;;;;65.68;27.35;;;7.20;99.90;;;;;;5094903;28;20043;-76
2023/02/23 01:59:14;;;;;;;76.72;31.13;;;7.20;99.90;;;;;;5078408;28;20064;-77
2023/02/23 02:01:41;;;;;;;77.90;30.42;;;7.20;99.90;;;;;;5095173;28;20032;-76
2023/02/23 02:04:15;;;;;;;65.05;29.98;;;7.20;99.90;;;;;;5077911;28;20028;-76
2023/02/23 02:06:44;;;;;;;66.47;28.65;;;7.20;99.90;;;;;;5094744;28;20082;-77
2023/02/23 02:09:18;;;;;;;63.00;28.73;;;7.20;99.90;;;;;;5094848;28;20047;-76
2023/02/23 02:11:52;;;;;;;66.63;28.77;;;7.20;99.90;;;;;;5111573;28;20048;-77
2023/02/23 02:14:23;;;;;;;65.47;28.30;;;7.20;99.90;;;;;;5093976;28;20044;-77
2023/02/23 02:17:14;;;;;;;65.43;27.80;;;7.20;99.90;;;;;;5094534;28;20585;-76
2023/02/23 02:19:47;;;;;;;65.65;27.77;;;7.20;99.90;;;;;;5109609;28;20131;-76
2023/02/23 02:22:35;;;;;;;57.80;27.63;;;7.20;99.90;;;;;;5110702;28;20043;-77
2023/02/23 02:25:16;;;;;;;69.13;28.95;;;7.20;99.90;;;;;;5074138;28;20044;-77
2023/02/23 02:27:49;;;;;;;61.67;27.50;;;7.20;99.90;;;;;;5074128;28;20413;-76
2023/02/23 02:30:34;;;;;;;65.80;27.58;;;7.20;99.90;;;;;;5074732;28;20040;-77
2023/02/23 02:33:19;;;;;;;67.22;28.48;;;7.20;99.90;;;;;;5093215;28;20500;-77
2023/02/23 02:36:08;;;;;;;63.20;27.47;;;7.20;99.90;;;;;;5085899;28;20047;-76
2023/02/23 02:38:55;;;;;;;70.45;28.45;;;7.20;99.90;;;;;;5090366;28;20396;-76
2023/02/23 02:41:41;;;;;;;69.35;27.63;;;7.20;99.90;;;;;;5076125;28;20060;-77
2023/02/23 02:44:16;;;;;;;;;;;7.20;99.90;;;;;;5074614;28;20097;-77
2023/02/23 02:46:52;;;;;;;63.08;26.88;;;7.20;99.90;;;;;;5090300;28;19960;-76
2023/02/23 02:49:31;;;;;;;67.55;28.65;;;7.20;99.90;;;;;;5073935;28;20051;-76
2023/02/23 02:52:12;;;;;;;68.25;29.17;;;7.20;99.90;;;;;;5090024;28;20072;-77
2023/02/23 02:54:47;;;;;;;66.03;27.20;;;7.20;99.90;;;;;;5100235;28;20408;-77
2023/02/23 02:57:16;;;;;;;71.13;26.92;;;7.20;99.90;;;;;;5110377;28;20123;-76
2023/02/23 04:18:38;;;;;;;73.22;30.27;;;7.10;99.90;;;;;;5106634;28;20132;-78
2023/02/23 04:21:06;;;;;;;80.25;29.67;;;7.20;99.90;;;;;;5075375;28;20471;-77
2023/02/23 04:23:34;;;;;;;78.82;31.10;;;7.20;99.90;;;;;;5055285;28;20400;-78
2023/02/23 04:26:01;;;;;;;77.80;30.70;;;7.20;99.90;;;;;;5061845;28;20057;-78
2023/02/23 04:28:28;;;;;;;77.45;31.33;;;7.20;99.90;;;;;;5038626;28;20044;-77
2023/02/23 04:30:55;;;;;;;77.20;30.02;;;7.10;99.90;;;;;;5068188;28;20048;-77
2023/02/23 04:33:23;;;;;;;70.15;28.27;;;7.10;99.90;;;;;;5052698;28;20128;-77
2023/02/23 04:35:54;;;;;;;73.82;29.48;;;7.20;99.90;;;;;;5068497;28;20125;-77
2023/02/23 04:38:22;;;;;;;76.70;31.20;;;7.20;99.90;;;;;;5083598;28;20079;-77
2023/02/23 04:40:49;;;;;;;72.53;30.33;;;7.20;99.90;;;;;;5064611;28;20414;-77
2023/02/23 04:43:16;;;;;;;71.68;30.17;;;7.10;99.90;;;;;;5049878;28;20052;-77
2023/02/23 04:45:43;;;;;;;79.50;30.27;;;7.10;99.90;;;;;;5068500;28;20433;-77
2023/02/23 04:48:10;;;;;;;81.22;29.80;;;7.20;99.90;;;;;;5069027;28;20045;-77
2023/02/23 04:50:38;;;;;;;67.82;29.73;;;7.20;99.90;;;;;;5035975;28;20041;-77
2023/02/23 04:53:07;;;;;;;79.65;31.80;;;7.20;99.90;;;;;;5055951;28;20117;-77
2023/02/23 04:55:34;;;;;;;71.22;29.20;;;7.20;99.90;;;;;;5055301;28;20497;-77
2023/02/23 04:58:01;;;;;;;78.50;29.95;;;7.20;99.90;;;;;;5088337;28;20048;-77
2023/02/23 05:00:32;;;;;;;76.90;30.83;;;7.20;99.90;;;;;;5071553;28;20401;-77
2023/02/23 05:02:59;;;;;;;72.90;29.60;;;7.10;99.90;;;;;;5055422;28;20518;-77
2023/02/23 05:05:26;;;;;;;69.53;29.70;;;7.20;99.90;;;;;;5055638;28;20123;-77
2023/02/23 05:07:53;;;;;;;73.80;29.52;;;7.20;99.90;;;;;;5055697;28;20043;-77
2023/02/23 05:10:20;;;;;;;79.05;30.75;;;7.10;99.90;;;;;;5045648;28;20048;-77
2023/02/23 05:12:47;;;;;;;78.65;30.15;;;7.20;99.90;;;;;;5051812;28;20049;-77
2023/02/23 05:15:13;;;;;;;78.53;30.30;;;7.20;99.90;;;;;;5035647;28;20038;-77
2023/02/23 05:17:41;;;;;;;80.97;31.35;;;7.10;99.90;;;;;;5035369;28;20037;-78
2023/02/23 05:20:12;;;;;;;78.03;31.90;;;7.10;99.90;;;;;;5073000;28;20025;-77
2023/02/23 05:22:38;;;;;;;81.32;31.67;;;7.10;99.90;;;;;;5035855;28;20084;-77
2023/02/23 05:25:07;;;;;;;81.20;32.45;;;7.10;99.90;;;;;;5051604;28;20041;-77
2023/02/23 05:27:34;;;;;;;75.93;31.02;;;7.10;99.90;;;;;;5055053;28;20451;-77
2023/02/23 05:30:01;;;;;;;82.47;31.20;;;7.10;99.90;;;;;;5088500;28;20056;-77
2023/02/23 05:32:28;;;;;;;79.22;32.17;;;7.10;99.90;;;;;;5072008;28;20051;-77
2023/02/23 05:34:55;;;;;;;81.45;32.35;;;7.10;99.90;;;;;;5054798;28;20068;-77
2023/02/23 05:37:21;;;;;;;70.43;28.80;;;7.10;99.90;;;;;;5071690;28;20041;-77
2023/02/23 05:39:48;;;;;;;85.03;30.60;;;7.10;99.90;;;;;;5071172;28;20098;-77
2023/02/23 05:42:15;;;;;;;75.80;30.67;;;7.10;99.90;;;;;;5053231;28;20029;-77
2023/02/23 05:44:42;;;;;;;83.18;30.02;;;7.10;99.90;;;;;;5091141;28;20086;-78
2023/02/23 05:47:09;;;;;;;77.25;29.67;;;7.10;99.90;;;;;;5091468;28;20578;-77
2023/02/23 05:49:37;;;;;;;76.90;28.38;;;7.10;99.90;;;;;;5091549;28;20079;-77
2023/02/23 05:52:04;;;;;;;73.10;29.13;;;7.10;99.90;;;;;;5069600;28;20049;-77
2023/02/23 05:54:30;;;;;;;78.85;28.88;;;7.10;99.90;;;;;;5070939;28;20523;-77
2023/02/23 05:56:57;;;;;;;74.05;27.38;;;7.10;99.90;;;;;;5054469;28;20180;-77
2023/02/23 05:59:24;;;;;;;70.40;29.27;;;7.10;99.90;;;;;;5071258;28;20374;-77
2023/02/23 06:01:50;;;;;;;74.80;28.08;;;7.10;99.90;;;;;;5070824;28;20718;-77
2023/02/23 06:04:18;;;;;;;67.45;26.58;;;7.10;99.90;;;;;;5071210;28;20505;-77
2023/02/23 06:06:45;;;;;;;71.00;26.95;;;7.10;99.90;;;;;;5080639;28;20436;-77
2023/02/23 06:09:11;;;;;;;67.95;26.48;;;7.10;99.90;;;;;;5065770;28;20043;-77
2023/02/23 06:11:38;;;;;;;69.45;26.33;;;7.20;99.90;;;;;;5102393;28;20382;-77
2023/02/23 06:14:05;;;;;;;67.45;27.65;;;7.10;99.90;;;;;;5084797;28;20040;-77
2023/02/23 06:16:32;;;;;;;66.25;27.10;;;7.10;99.90;;;;;;5074185;28;20396;-77
2023/02/23 06:18:58;;;;;;;68.75;24.38;;;7.10;99.90;;;;;;5070476;28;20067;-77
2023/02/23 06:21:25;;;;;;;65.80;23.88;;;7.10;99.90;;;;;;5054489;28;20044;-77
2023/02/23 06:23:52;;;;;;;67.47;25.33;;;7.10;99.90;;;;;;5084986;28;20071;-77
2023/02/23 06:26:19;;;;;;;59.75;23.05;;;7.10;99.90;;;;;;5057929;28;20045;-77
2023/02/23 06:28:46;;;;;;;61.42;22.90;;;7.10;99.90;;;;;;5056100;28;20416;-77
2023/02/23 06:31:13;;;;;;;58.95;22.05;;;7.10;99.90;;;;;;5051012;28;20041;-77
2023/02/23 06:33:39;;;;;;;60.47;23.85;;;7.20;99.90;;;;;;5034636;28;20041;-77
2023/02/23 06:36:06;;;;;;;66.10;23.02;;;7.10;99.90;;;;;;5054444;28;20037;-77
2023/02/23 06:38:33;;;;;;;61.42;22.73;;;7.10;99.90;;;;;;5054023;28;20123;-77
2023/02/23 06:41:09;;;;;;;66.72;24.35;;;7.10;99.90;;;;;;5070497;28;20549;-77
2023/02/23 06:43:36;;;;;;;66.47;23.55;;;7.10;99.90;;;;;;5080762;28;20069;-77
2023/02/23 06:46:03;;;;;;;62.25;24.08;;;7.10;99.90;;;;;;5050495;28;20041;-77
2023/02/23 06:48:30;;;;;;;69.15;24.08;;;7.10;99.90;;;;;;5050204;28;20051;-77
2023/02/23 06:50:59;;;;;;;62.80;23.58;;;7.10;99.90;;;;;;5033362;28;20045;-77
2023/02/23 06:53:26;;;;;;;61.28;22.90;;;7.10;99.90;;;;;;5049673;28;20049;-77
2023/02/23 06:55:52;;;;;;;71.00;24.48;;;7.10;99.90;;;;;;5065889;28;20044;-77
2023/02/23 06:58:19;;;;;;;67.57;24.25;;;7.40;99.90;;;;;;5033811;28;20106;-77
2023/02/23 07:00:46;;;;;;;60.92;23.40;;;7.10;99.90;;;;;;5049670;28;20124;-77
2023/02/23 07:03:12;;;;;;;65.63;24.33;;;7.10;99.90;;;;;;5023450;28;20448;-77
2023/02/23 07:05:39;;;;;;;58.17;22.35;;;7.10;99.90;;;;;;5033161;28;20045;-77
2023/02/23 07:08:06;;;;;;;66.78;25.00;;;7.20;99.90;;;;;;5066497;28;20041;-77
2023/02/23 07:10:33;;;;;;;66.97;25.38;;;7.10;99.90;;;;;;5066020;28;20124;-77
2023/02/23 07:13:00;;;;;;;68.28;24.45;;;7.10;99.90;;;;;;5033571;28;20084;-77
2023/02/23 07:15:27;;;;;;;64.82;24.13;;;7.20;99.90;;;;;;5049808;28;20080;-77
2023/02/23 07:17:54;;;;;;;60.65;23.10;;;7.10;99.90;;;;;;5043960;28;20425;-77
2023/02/23 07:20:20;;;;;;;56.30;21.40;;;7.20;99.90;;;;;;5043383;28;20088;-77
2023/02/23 07:22:47;;;;;;;58.03;20.15;;;7.10;99.90;;;;;;5045336;28;20053;-77
2023/02/23 07:25:14;;;;;;;47.85;19.30;;;7.10;99.90;;;;;;5040468;28;20065;-77
2023/02/23 07:27:41;;;;;;;52.80;19.75;;;7.10;99.90;;;;;;5072478;28;20094;-77
2023/02/23 07:30:09;;;;;;;48.30;18.10;;;7.20;99.90;;;;;;5044404;28;20550;-77
2023/02/23 07:32:35;;;;;;;42.88;18.40;;;7.10;99.90;;;;;;5087845;28;20039;-78
2023/02/23 07:35:03;;;;;;;49.83;17.90;;;7.10;99.90;;;;;;5076428;28;20090;-77
2023/02/23 07:37:30;;;;;;;46.38;17.65;;;7.10;99.90;;;;;;5096354;28;20634;-77
2023/02/23 07:39:56;;;;;;;45.83;16.50;;;7.10;99.90;;;;;;5077772;28;20093;-77
2023/02/23 07:42:25;;;;;;;46.95;17.65;;;7.10;99.90;;;;;;5075106;28;20051;-77
2023/02/23 07:44:51;;;;;;;53.53;18.40;;;7.10;99.90;;;;;;5089308;28;20032;-77
2023/02/23 07:47:18;;;;;;;45.45;17.25;;;7.10;99.90;;;;;;5068713;28;20577;-77
2023/02/23 07:49:45;;;;;;;39.88;16.05;;;7.10;99.90;;;;;;5088619;28;20056;-77
2023/02/23 07:52:15;;;;;;;36.85;15.38;;;7.10;99.90;;;;;;5059694;28;20032;-77
2023/02/23 07:54:42;;;;;;;41.10;15.18;;;7.20;99.90;;;;;;5073116;28;20090;-77
2023/02/23 07:57:10;;;;;;;39.13;15.55;;;7.10;99.90;;;;;;5077197;28;20039;-77
2023/02/23 07:59:38;;;;;;;41.17;15.07;;;7.10;99.90;;;;;;5096247;28;20044;-77
2023/02/23 08:02:05;;;;;;;42.40;15.07;;;7.20;99.90;;;;;;5072185;28;20041;-77
2023/02/23 08:04:32;;;;;;;40.38;16.08;;;7.10;99.90;;;;;;5072495;28;20037;-77
2023/02/23 08:06:59;;;;;;;38.13;15.38;;;7.10;99.90;;;;;;5063697;28;20044;-77
2023/02/23 08:09:25;;;;;;;34.80;14.15;;;7.10;99.90;;;;;;5088718;28;20051;-77
2023/02/23 08:11:52;;;;;;;34.03;14.77;;;7.10;99.90;;;;;;5072462;28;20123;-77
2023/02/23 08:14:22;;;;;;;37.13;15.52;;;7.20;99.90;;;;;;5063673;28;20032;-77
2023/02/23 08:16:49;;;;;;;37.35;15.25;;;7.10;99.90;;;;;;5063926;28;20378;-77
2023/02/23 08:19:15;;;;;;;43.00;16.60;;;7.20;99.90;;;;;;5081079;28;20041;-78
2023/02/23 08:21:42;;;;;;;41.10;15.35;;;7.20;99.90;;;;;;5095099;28;20036;-77
2023/02/23 08:24:09;;;;;;;43.80;17.17;;;7.20;99.90;;;;;;5087503;28;20036;-77
2023/02/23 08:26:37;;;;;;;40.28;15.95;;;7.10;99.90;;;;;;5061276;28;20146;-77
2023/02/23 08:29:04;;;;;;;42.05;16.67;;;7.10;99.90;;;;;;5057874;28;20053;-77
2023/02/23 08:31:31;;;;;;;48.50;16.17;;;7.20;99.90;;;;;;5092307;28;20110;-77
2023/02/23 08:33:58;;;;;;;42.97;16.38;;;7.20;99.90;;;;;;5088990;28;20143;-77
2023/02/23 08:36:24;;;;;;;40.65;16.30;;;7.20;99.90;;;;;;5097519;28;20100;-78
2023/02/23 08:38:53;;;;;;;30.70;11.52;;;7.20;99.90;;;;;;5057792;28;20040;-77
2023/02/23 08:41:20;;;;;;;43.25;14.50;;;7.30;99.90;;;;;;5091827;28;20032;-77
2023/02/23 08:43:47;;;;;;;34.75;12.30;;;7.30;99.90;;;;;;5071566;28;20036;-77
2023/02/23 08:46:17;;;;;;;36.92;12.48;;;7.30;99.90;;;;;;5054794;28;20412;-77
2023/02/23 08:48:44;;;;;;;41.42;13.10;;;7.30;99.90;;;;;;5087592;28;20431;-77
2023/02/23 08:51:10;;;;;;;37.15;13.65;;;7.30;99.90;;;;;;5094061;28;20052;-77
2023/02/23 08:53:37;;;;;;;39.85;13.52;;;7.30;99.90;;;;;;5075422;28;20040;-77
2023/02/23 08:56:06;;;;;;;38.95;15.25;;;7.30;99.90;;;;;;5108061;28;20040;-77
2023/02/23 08:58:34;;;;;;;39.80;15.43;;;7.30;99.90;;;;;;5106452;28;20040;-77
2023/02/23 09:01:01;;;;;;;37.55;13.85;;;7.20;99.90;;;;;;5108365;28;20408;-77
2023/02/23 09:03:31;;;;;;;35.20;14.50;;;7.20;99.90;;;;;;5107992;28;20047;-77
2023/02/23 09:06:07;;;;;;;42.35;13.95;;;7.20;99.90;;;;;;5092280;28;20475;-77
2023/02/23 09:08:34;;;;;;;36.22;14.38;;;7.20;99.90;;;;;;5107787;28;20492;-77
2023/02/23 09:11:01;;;;;;;33.78;13.07;;;7.20;99.90;;;;;;5108622;28;20040;-77
2023/02/23 09:13:27;;;;;;;38.22;12.50;;;7.20;99.90;;;;;;5074769;28;20047;-78
2023/02/23 09:15:54;;;;;;;27.75;11.77;;;7.10;99.90;;;;;;5091406;28;20048;-77
2023/02/23 09:18:22;;;;;;;27.67;12.35;;;7.10;99.90;;;;;;5083659;28;20111;-77
2023/02/23 09:20:50;;;;;;;31.20;12.40;;;7.10;99.90;;;;;;5087686;28;20044;-77
2023/02/23 09:23:16;;;;;;;27.83;12.13;;;7.10;99.90;;;;;;5065830;28;20467;-77
2023/02/23 09:25:44;;;;;;;27.40;11.32;;;7.10;99.90;;;;;;5074709;28;20127;-77
2023/02/23 09:28:16;;;;;;;24.70;11.10;;;7.20;99.90;;;;;;5085959;28;20811;-77
2023/02/23 09:30:44;;;;;;;31.55;11.23;;;7.20;99.90;;;;;;5083785;28;20044;-77
2023/02/23 09:33:11;;;;;;;31.48;12.77;;;7.20;99.90;;;;;;5095184;28;20471;-77
2023/02/23 09:35:39;;;;;;;27.65;12.38;;;7.20;99.90;;;;;;5111344;28;20047;-77
2023/02/23 09:38:07;;;;;;;34.13;12.80;;;7.20;99.90;;;;;;5085214;28;20078;-77
2023/02/23 09:40:52;;;;;;;27.90;11.88;;;7.30;99.90;;;;;;5058169;28;20074;-77
2023/02/23 09:43:29;;;;;;;33.40;12.77;;;7.30;99.90;;;;;;5074434;28;20055;-77
2023/02/23 09:46:27;;;;;;;30.15;11.95;;;7.30;99.90;;;;;;5091461;28;20040;-77
2023/02/23 09:48:58;;;;;;;26.52;12.35;;;7.40;99.90;;;;;;5074161;28;20043;-77
2023/02/23 09:51:25;;;;;;;29.35;12.23;;;7.40;99.90;;;;;;5090705;28;20052;-77
2023/02/23 09:54:00;;;;;;;30.60;12.13;;;7.30;99.90;;;;;;5058084;28;20562;-77
2023/02/23 09:56:34;;;;;;;29.55;11.93;;;7.30;99.90;;;;;;5073804;28;20489;-77
2023/02/23 09:59:05;;;;;;;29.40;11.75;;;7.30;99.90;;;;;;5074684;28;20865;-77
2023/02/23 10:01:46;;;;;;;30.90;12.05;;;7.30;99.90;;;;;;5074330;28;20040;-77
2023/02/23 10:04:17;;;;;;;33.80;12.38;;;7.30;99.90;;;;;;5091120;28;20044;-77
2023/02/23 10:06:52;;;;;;;32.15;12.63;;;7.30;99.90;;;;;;5074161;28;20040;-77
2023/02/23 10:09:40;;;;;;;28.35;11.85;;;7.30;99.90;;;;;;5074203;28;20044;-77
2023/02/23 10:12:17;;;;;;;34.85;12.23;;;7.30;99.90;;;;;;5090803;28;20090;-77
2023/02/23 10:15:11;;;;;;;34.10;12.43;;;7.30;99.90;;;;;;5073811;28;20435;-77
2023/02/23 10:17:38;;;;;;;31.95;13.52;;;7.30;99.90;;;;;;5090175;28;20076;-77
2023/02/23 10:20:12;;;;;;;36.72;13.80;;;7.30;99.90;;;;;;5077840;28;20929;-77
2023/02/23 10:22:40;;;;;;;36.42;14.15;;;7.30;99.90;;;;;;5093842;28;20048;-77
2023/02/23 10:25:16;;;;;;;36.42;13.82;;;7.40;99.90;;;;;;5094136;28;20046;-77
2023/02/23 10:27:48;;;;;;;36.35;14.30;;;7.40;99.90;;;;;;5093412;28;20094;-77
2023/02/23 10:30:20;;;;;;;43.70;13.73;;;7.50;99.90;;;;;;5090835;28;20462;-77
2023/02/23 10:32:56;;;;;;;40.55;13.43;;;7.50;99.90;;;;;;5098038;28;20036;-77
2023/02/23 10:35:26;;;;;;;32.55;13.43;;;7.60;99.90;;;;;;5109868;28;20040;-77
2023/02/23 10:37:53;;;;;;;41.15;13.57;;;7.60;99.90;;;;;;5077626;28;20131;-77
2023/02/23 10:40:24;;;;;;;38.28;15.10;;;7.60;99.90;;;;;;5075860;28;20086;-77
2023/02/23 10:42:52;;;;;;;38.97;14.18;;;7.60;99.90;;;;;;5110226;28;20789;-77
2023/02/23 10:45:22;;;;;;;38.55;14.98;;;7.60;99.90;;;;;;5077411;28;20127;-77
2023/02/23 10:48:00;;;;;;;37.70;14.70;;;7.60;99.90;;;;;;5093387;28;20063;-77
2023/02/23 10:50:27;;;;;;;37.50;14.68;;;7.70;99.90;;;;;;5093198;28;20126;-77
2023/02/23 10:52:59;;;;;;;41.97;16.02;;;7.70;99.90;;;;;;5092007;28;20083;-77
2023/02/23 10:55:29;;;;;;;43.13;14.27;;;7.60;99.90;;;;;;5106765;28;20046;-76
2023/02/23 10:58:16;;;;;;;50.08;14.55;;;7.70;99.90;;;;;;5130286;28;20667;-77
2023/02/23 11:01:01;;;;;;;43.40;14.57;;;7.70;99.90;;;;;;5076003;28;20047;-77
2023/02/23 11:04:12;;;;;;;35.72;13.38;;;7.80;99.90;;;;;;5105520;28;20420;-77
2023/02/23 11:06:39;;;;;;;41.13;14.40;;;7.90;99.90;;;;;;5045154;28;20435;-77
2023/02/23 11:09:29;;;;;;;43.00;15.35;;;7.90;99.90;;;;;;5057109;28;20040;-77
2023/02/23 11:12:01;;;;;;;44.42;14.77;;;7.90;99.90;;;;;;5078579;28;20050;-77
2023/02/23 11:14:30;;;;;;;44.40;14.43;;;7.90;99.90;;;;;;5089566;28;20044;-78
2023/02/23 11:16:59;;;;;;;47.55;15.35;;;8.00;99.90;;;;;;5072868;28;20049;-77
2023/02/23 11:19:35;;;;;;;49.60;15.50;;;8.00;99.90;;;;;;5072962;28;20036;-77
2023/02/23 11:22:04;;;;;;;46.47;14.38;;;8.00;99.90;;;;;;5091590;28;20438;-77
2023/02/23 11:24:38;;;;;;;45.10;15.00;;;8.10;99.90;;;;;;5084184;28;20037;-77
2023/02/23 11:27:15;;;;;;;50.67;15.23;;;8.10;99.90;;;;;;5072556;28;20036;-77
2023/02/23 11:29:49;;;;;;;54.47;16.08;;;8.00;99.90;;;;;;5088969;28;20381;-77
2023/02/23 11:32:21;;;;;;;49.55;16.17;;;8.10;99.90;;;;;;5089870;28;20036;-77
2023/02/23 11:35:14;;;;;;;52.00;15.63;;;8.10;99.90;;;;;;5085663;28;20234;-77
2023/02/23 11:37:41;;;;;;;61.50;16.30;;;8.10;99.90;;;;;;5092505;28;20044;-77
2023/02/23 11:40:26;;;;;;;48.05;15.35;;;8.10;99.90;;;;;;5076494;28;20032;-77
2023/02/23 11:42:55;;;;;;;55.47;15.55;;;8.10;99.90;;;;;;5091046;28;20121;-77
2023/02/23 11:45:25;;;;;;;46.85;12.55;;;8.10;99.90;;;;;;5101991;28;20100;-77
2023/02/23 11:47:55;;;;;;;43.47;13.02;;;8.00;99.90;;;;;;5092150;28;20047;-77
2023/02/23 11:50:32;;;;;;;49.95;13.43;;;8.00;99.90;;;;;;5108836;28;20071;-77
2023/02/23 11:53:04;;;;;;;46.65;13.88;;;8.00;99.90;;;;;;5092182;28;20495;-77
2023/02/23 11:55:32;;;;;;;46.40;13.02;;;8.00;99.90;;;;;;5089472;28;20060;-77
2023/02/23 11:58:18;;;;;;;41.00;12.60;;;8.00;99.90;;;;;;5071929;28;20041;-77
2023/02/23 12:01:01;;;;;;;50.80;11.30;;;8.10;99.90;;;;;;5072073;28;20036;-77
2023/02/23 12:03:32;;;;;;;41.88;12.05;;;8.00;99.90;;;;;;5072077;28;20123;-77
2023/02/23 12:05:59;;;;;;;46.67;11.20;;;8.00;99.90;;;;;;5072023;28;20790;-77
2023/02/23 12:08:48;;;;;;;43.00;12.07;;;8.00;99.90;;;;;;5072006;28;20081;-77
2023/02/23 12:11:22;;;;;;;44.10;12.35;;;8.10;99.90;;;;;;5083297;28;20412;-77
2023/02/23 12:13:59;;;;;;;41.30;11.60;;;8.10;99.90;;;;;;5091204;28;20050;-77
2023/02/23 12:16:33;;;;;;;40.67;11.23;;;8.20;99.90;;;;;;5071848;28;20045;-77
2023/02/23 12:19:19;;;;;;;36.13;10.45;;;8.30;99.90;;;;;;5071968;28;20047;-77
2023/02/23 12:21:59;;;;;;;38.42;12.07;;;8.40;99.90;;;;;;5071430;28;20576;-77
2023/02/23 12:24:38;;;;;;;40.08;10.70;;;8.40;99.90;;;;;;5088741;28;20093;-77
2023/02/23 12:27:40;;;;;;;40.53;11.40;;;8.40;99.90;;;;;;5071847;28;20047;-77
2023/02/23 12:30:35;;;;;;;40.08;11.65;;;8.40;99.90;;;;;;5030872;28;20080;-77
2023/02/23 12:33:16;;;;;;;42.67;11.45;;;8.30;99.90;;;;;;5107518;28;20044;-77
2023/02/23 12:36:13;;;;;;;34.63;11.50;;;8.30;99.90;;;;;;5082508;28;20040;-77
2023/02/23 12:38:58;;;;;;;40.20;11.57;;;8.30;99.90;;;;;;5015468;28;20125;-77
2023/02/23 12:41:43;;;;;;;30.77;9.93;;;8.30;99.90;;;;;;5073338;28;20106;-77
2023/02/23 12:44:33;;;;;;;41.65;10.93;;;8.30;99.90;;;;;;5088378;28;20066;-77
2023/02/23 12:47:20;;;;;;;37.60;10.68;;;8.20;99.90;;;;;;5088376;28;20095;-77
2023/02/23 12:49:56;;;;;;;38.00;9.75;;;8.20;99.90;;;;;;5071324;28;20041;-77
2023/02/23 12:52:30;;;;;;;37.80;11.20;;;8.20;99.90;;;;;;5088074;28;20037;-77
2023/02/23 12:54:57;;;;;;;41.88;10.80;;;8.20;99.90;;;;;;5087679;28;20561;-77
2023/02/23 12:58:06;;;;;;;35.70;10.90;;;8.20;99.90;;;;;;5073043;28;20036;-77
2023/02/23 13:00:51;;;;;;;40.22;11.70;;;8.10;99.90;;;;;;5062299;28;20105;-77
2023/02/23 13:03:21;;;;;;;38.75;10.85;;;8.10;99.90;;;;;;5088153;28;20508;-77
2023/02/23 13:06:07;;;;;;;39.72;11.90;;;8.10;99.90;;;;;;5091987;28;20488;-77
2023/02/23 13:08:55;;;;;;;44.28;11.90;;;8.10;99.90;;;;;;5111372;28;20036;-77
2023/02/23 13:11:47;;;;;;;47.90;12.18;;;8.10;99.90;;;;;;5112454;28;20056;-77
2023/02/23 13:14:22;;;;;;;41.22;11.38;;;8.10;99.90;;;;;;5111977;28;20039;-77
2023/02/23 13:17:01;;;;;;;52.25;14.25;;;8.00;99.90;;;;;;5107491;28;20542;-77
2023/02/23 13:19:30;;;;;;;59.08;14.18;;;8.00;99.90;;;;;;5092237;28;20036;-76
2023/02/23 13:22:21;;;;;;;55.05;14.32;;;8.00;99.90;;;;;;5074662;28;20036;-77
2023/02/23 13:24:51;;;;;;;52.97;13.13;;;8.00;99.90;;;;;;5091599;28;20051;-77
2023/02/23 13:27:26;;;;;;;52.65;13.80;;;7.90;99.90;;;;;;5075542;28;20098;-77
2023/02/23 13:29:54;;;;;;;69.37;14.23;;;7.90;99.90;;;;;;5091663;28;20523;-77
2023/02/23 13:32:24;;;;;;;63.75;14.65;;;8.00;99.90;;;;;;5075036;28;20297;-77
2023/02/23 13:34:56;;;;;;;52.45;13.40;;;7.90;99.90;;;;;;5091255;28;20053;-76
2023/02/23 13:37:54;;;;;;;56.65;13.45;;;7.90;99.90;;;;;;5079595;28;20036;-77
2023/02/23 13:40:33;;;;;;;59.45;14.35;;;7.90;99.90;;;;;;5112070;28;20048;-77
2023/02/23 13:43:16;;;;;;;46.65;12.85;;;7.80;99.90;;;;;;5094845;28;20058;-77
2023/02/23 13:46:23;;;;;;;18.70;4.93;;;7.80;99.90;;;;;;5112012;28;20044;-77
2023/02/23 13:48:55;;;;;;;19.35;4.07;;;7.70;99.90;;;;;;5067960;28;20154;-77
2023/02/23 13:51:36;;;;;;;17.17;3.55;;;7.50;99.90;;;;;;5091478;28;20036;-76
2023/02/23 13:54:29;;;;;;;17.95;3.65;;;7.40;99.90;;;;;;5074251;28;20508;-76
2023/02/23 13:57:11;;;;;;;18.20;3.55;;;7.30;99.90;;;;;;5074184;28;20055;-76
2023/02/23 13:59:42;;;;;;;19.88;2.90;;;7.20;99.90;;;;;;5089514;28;20036;-76
2023/02/23 14:02:31;;;;;;;22.77;3.83;;;7.10;99.90;;;;;;5090190;28;20029;-76
2023/02/23 14:05:26;;;;;;;19.33;3.78;;;7.10;99.90;;;;;;5076480;28;20505;-76
2023/02/23 14:08:04;;;;;;;26.23;4.75;;;7.00;99.90;;;;;;5061275;28;20386;-76
2023/02/23 14:10:40;;;;;;;22.45;3.65;;;6.90;99.90;;;;;;5062970;28;20048;-76
2023/02/23 14:13:09;;;;;;;22.15;3.13;;;7.00;99.90;;;;;;5091500;28;20102;-76
2023/02/23 14:15:39;;;;;;;17.38;2.70;;;6.90;99.90;;;;;;5089843;28;20554;-76
2023/02/23 14:18:18;;;;;;;19.65;3.00;;;6.80;99.90;;;;;;5104408;28;20040;-77
2023/02/23 14:21:03;;;;;;;25.92;3.58;;;6.70;99.90;;;;;;5076032;28;20120;-76
2023/02/23 14:23:55;;;;;;;27.80;4.65;;;6.70;99.90;;;;;;5076376;28;20033;-76